CheckWX is a tool to help pilots better visualize weather data.  It is not intended as a substitute for an official pre-flight weather briefing.

13:10:56 UTC

KRNC METAR
Warren County Memorial Airport
Mc Minnville, Tennessee, USA
Current

16 mins ago

KRNC 131255Z AUTO 16005KT 10SM BKN014 OVC020 08/06 A3006 RMK A01
Observed
Dec-13 @ 12:55 UTC
Wind
  • 160° at 5 KTS
Visibility
10 SM
Flight Rules
MVFR
Cloud Levels
  • Broken at 1,400' AGL
  • Overcast at 2,000' AGL
Temperature
C / 46°F
Dewpoint
C / 43°F
Humidity
87%
Altimeter
30.06" Hg
Pressure
1017.92 hPa
Previous

36 mins ago

KRNC 131235Z AUTO 17004KT 10SM OVC014 08/05 A3006 RMK A01
Observed
Dec-13 @ 12:35 UTC
Wind
  • 170° at 4 KTS
Visibility
10 SM
Flight Rules
MVFR
Cloud Levels
  • Overcast at 1,400' AGL
Temperature
C / 46°F
Dewpoint
C / 41°F
Humidity
82%
Altimeter
30.06" Hg
Pressure
1017.92 hPa
Previous

56 mins ago

KRNC 131215Z AUTO 17004KT 10SM OVC015 08/05 A3007 RMK A01
Observed
Dec-13 @ 12:15 UTC
Wind
  • 170° at 4 KTS
Visibility
10 SM
Flight Rules
MVFR
Cloud Levels
  • Overcast at 1,500' AGL
Temperature
C / 46°F
Dewpoint
C / 41°F
Humidity
82%
Altimeter
30.07" Hg
Pressure
1018.32 hPa